Time;durP1;ratioP1;P1;durP2;ratioP2;P2;SDS_P1;SDS_P2;PMS_P1;PMS_P2;Temp;Humidity;BMP_temperature;BMP_pressure;BME280_temperature;BME280_humidity;BME280_pressure;Samples;Min_cycle;Max_cycle;Signal;HPM_P1;HPM_P2
2022/08/04 00:01:23;;;;;;;2.97;2.77;;;24.10;85.90;;;;;;6045602;23;20474;-68
2022/08/04 00:03:56;;;;;;;2.90;2.70;;;24.00;86.20;;;;;;6032416;23;20443;-67
2022/08/04 00:06:34;;;;;;;2.70;2.50;;;24.00;86.60;;;;;;6031581;23;20495;-68
2022/08/04 00:09:07;;;;;;;2.80;2.60;;;23.90;87.20;;;;;;6032910;23;20508;-67
2022/08/04 00:11:37;;;;;;;2.80;2.60;;;23.90;87.70;;;;;;6041853;23;20491;-67
2022/08/04 00:14:11;;;;;;;2.73;2.53;;;23.90;88.00;;;;;;6026288;23;20442;-68
2022/08/04 00:16:41;;;;;;;2.80;2.60;;;24.00;88.50;;;;;;6036620;23;20490;-68
2022/08/04 00:19:12;;;;;;;3.77;2.90;;;23.80;88.80;;;;;;6041198;23;20490;-68
2022/08/04 00:21:46;;;;;;;2.53;2.33;;;23.80;89.30;;;;;;6038432;23;20495;-68
2022/08/04 00:24:16;;;;;;;3.80;2.87;;;23.80;89.90;;;;;;6041735;23;20438;-68
2022/08/04 00:26:44;;;;;;;3.00;2.50;;;23.80;90.10;;;;;;6034716;23;22214;-68
2022/08/04 00:29:11;;;;;;;2.77;2.50;;;23.70;90.20;;;;;;6048113;23;21127;-68
2022/08/04 00:31:41;;;;;;;2.80;2.60;;;23.70;90.40;;;;;;6044454;23;20535;-69
2022/08/04 00:34:11;;;;;;;2.90;2.70;;;23.70;90.60;;;;;;6025821;23;20499;-67
2022/08/04 00:36:39;;;;;;;2.67;2.47;;;23.60;90.80;;;;;;6036284;23;20575;-67
2022/08/04 00:39:11;;;;;;;2.80;2.60;;;23.50;90.90;;;;;;6042283;23;20487;-67
2022/08/04 00:41:48;;;;;;;2.90;2.33;;;23.50;91.30;;;;;;6037522;23;20460;-67
2022/08/04 00:44:26;;;;;;;2.50;2.30;;;23.50;91.40;;;;;;6027460;23;20447;-68
2022/08/04 00:47:04;;;;;;;3.00;2.70;;;23.40;91.60;;;;;;6031310;23;20444;-67
2022/08/04 00:49:49;;;;;;;2.60;2.40;;;23.40;92.00;;;;;;6029863;23;20939;-68
2022/08/04 00:52:28;;;;;;;3.07;2.50;;;23.30;92.20;;;;;;6037109;23;20461;-67
2022/08/04 00:55:05;;;;;;;2.43;2.23;;;23.20;92.50;;;;;;6034121;23;20440;-67
2022/08/04 00:57:50;;;;;;;3.33;2.90;;;23.10;92.60;;;;;;6044347;23;20556;-68
2022/08/04 01:00:17;;;;;;;3.33;2.50;;;23.00;92.90;;;;;;6042347;23;20454;-68
2022/08/04 01:02:58;;;;;;;2.90;2.70;;;23.00;93.40;;;;;;6036974;23;20985;-67
2022/08/04 01:05:34;;;;;;;2.70;2.50;;;22.90;93.50;;;;;;6039325;23;20448;-67
2022/08/04 01:08:42;;;;;;;3.03;2.83;;;22.90;93.80;;;;;;6045507;23;20529;-68
2022/08/04 01:11:24;;;;;;;2.53;2.33;;;22.80;94.50;;;;;;6025356;23;20475;-68
2022/08/04 01:14:08;;;;;;;2.70;2.50;;;22.70;94.50;;;;;;6022016;23;20482;-67
2022/08/04 01:16:38;;;;;;;2.53;2.33;;;22.60;94.80;;;;;;6042099;23;20468;-67
2022/08/04 01:19:26;;;;;;;2.77;2.57;;;22.60;95.10;;;;;;6042890;23;20795;-68
2022/08/04 01:22:27;;;;;;;2.60;2.40;;;22.50;95.30;;;;;;6027816;23;20463;-67
2022/08/04 01:25:11;;;;;;;2.83;2.63;;;22.50;95.60;;;;;;6035485;23;20450;-67
2022/08/04 01:27:56;;;;;;;2.63;2.43;;;22.40;95.80;;;;;;6028510;23;20989;-67
2022/08/04 01:30:26;;;;;;;2.60;2.37;;;22.40;96.00;;;;;;6051372;23;20439;-68
2022/08/04 01:33:00;;;;;;;2.40;2.20;;;22.40;96.40;;;;;;6029273;23;20452;-67
2022/08/04 01:35:34;;;;;;;2.70;2.50;;;22.40;96.50;;;;;;6047844;23;20481;-67
2022/08/04 01:38:07;;;;;;;3.07;2.13;;;22.40;96.60;;;;;;6033875;23;20471;-67
2022/08/04 01:40:37;;;;;;;2.77;2.57;;;22.40;96.80;;;;;;6052395;23;20443;-67
2022/08/04 01:43:05;;;;;;;2.73;2.53;;;22.40;97.00;;;;;;6036443;23;20548;-67
2022/08/04 01:45:36;;;;;;;2.80;2.60;;;22.40;97.50;;;;;;6027776;23;20475;-68
2022/08/04 01:48:06;;;;;;;2.73;2.53;;;22.40;97.40;;;;;;6055512;23;20475;-67
2022/08/04 01:50:35;;;;;;;3.90;2.37;;;22.30;97.60;;;;;;6043117;23;20452;-68
2022/08/04 01:53:03;;;;;;;3.73;2.70;;;22.30;97.80;;;;;;6038541;23;20468;-67
2022/08/04 01:55:30;;;;;;;2.70;2.50;;;22.30;98.00;;;;;;6038232;23;20996;-67
2022/08/04 01:58:00;;;;;;;2.93;2.60;;;22.30;98.20;;;;;;6045780;23;20482;-67
2022/08/04 02:00:28;;;;;;;2.70;2.50;;;22.40;98.50;;;;;;6036210;23;20506;-67
2022/08/04 02:02:57;;;;;;;3.57;3.27;;;22.50;98.70;;;;;;6038122;23;20526;-67
2022/08/04 02:05:26;;;;;;;2.93;2.63;;;22.40;98.90;;;;;;6046714;23;20452;-68
2022/08/04 02:08:11;;;;;;;2.90;2.70;;;22.40;99.10;;;;;;6050553;23;20463;-67
2022/08/04 02:10:54;;;;;;;3.70;3.17;;;22.30;99.30;;;;;;6032584;23;20510;-67
2022/08/04 02:13:26;;;;;;;3.77;2.63;;;22.30;99.50;;;;;;6025659;23;20538;-67
2022/08/04 02:16:03;;;;;;;3.67;2.47;;;22.30;99.70;;;;;;6032653;23;20534;-67
2022/08/04 02:18:39;;;;;;;2.60;2.40;;;22.20;99.90;;;;;;6040425;23;20471;-67
2022/08/04 02:21:07;;;;;;;2.77;2.57;;;22.20;99.90;;;;;;6033250;23;20439;-67
2022/08/04 02:23:37;;;;;;;2.80;2.60;;;22.20;99.90;;;;;;6038245;23;20445;-67
2022/08/04 02:26:05;;;;;;;2.90;2.70;;;22.10;99.90;;;;;;6028778;23;20935;-67
2022/08/04 02:28:39;;;;;;;2.60;2.40;;;22.00;99.90;;;;;;6039344;23;20526;-67
2022/08/04 02:31:26;;;;;;;2.90;2.70;;;22.00;99.90;;;;;;6039656;23;20859;-67
2022/08/04 02:34:04;;;;;;;3.60;3.27;;;21.90;99.90;;;;;;6033960;23;20439;-67
2022/08/04 02:36:36;;;;;;;2.77;2.50;;;22.00;99.90;;;;;;6026330;23;20458;-67
2022/08/04 02:39:04;;;;;;;3.30;2.70;;;21.90;99.90;;;;;;6053611;23;20475;-67
2022/08/04 02:41:32;;;;;;;3.53;2.40;;;21.80;99.90;;;;;;6039167;23;20986;-67
2022/08/04 02:44:01;;;;;;;2.80;2.20;;;21.70;99.90;;;;;;6026955;23;20445;-67
2022/08/04 02:46:31;;;;;;;3.07;2.80;;;21.80;99.90;;;;;;6028574;23;21035;-68
2022/08/04 02:49:02;;;;;;;3.43;2.87;;;21.70;99.90;;;;;;6041894;23;20447;-67
2022/08/04 02:51:34;;;;;;;3.07;2.87;;;21.70;99.90;;;;;;6031191;23;21242;-68
2022/08/04 02:54:04;;;;;;;2.50;2.23;;;21.70;99.90;;;;;;6047048;23;20950;-67
2022/08/04 02:56:32;;;;;;;3.90;2.67;;;21.70;99.90;;;;;;6038544;23;20447;-67
2022/08/04 02:59:01;;;;;;;3.00;2.70;;;21.70;99.90;;;;;;6043597;23;20557;-67
2022/08/04 03:01:29;;;;;;;3.47;3.17;;;21.70;99.90;;;;;;6044084;23;20951;-67
2022/08/04 03:04:27;;;;;;;2.97;2.43;;;21.70;99.90;;;;;;6043979;23;21004;-66
2022/08/04 03:07:23;;;;;;;2.53;2.33;;;21.70;99.90;;;;;;6028400;23;20475;-67
2022/08/04 03:10:16;;;;;;;2.70;2.50;;;21.70;99.90;;;;;;6039289;23;20446;-67
2022/08/04 03:13:17;;;;;;;3.23;2.80;;;21.70;99.90;;;;;;6039014;23;20459;-68
2022/08/04 03:16:14;;;;;;;2.93;2.73;;;21.70;99.90;;;;;;6014812;23;20470;-67
2022/08/04 03:19:35;;;;;;;3.20;2.93;;;21.70;99.90;;;;;;6028274;23;20530;-68
2022/08/04 03:22:35;;;;;;;3.37;2.80;;;21.60;99.90;;;;;;6026270;23;20523;-67
2022/08/04 03:25:22;;;;;;;3.00;2.80;;;21.60;99.90;;;;;;6041443;23;20439;-68
2022/08/04 03:28:22;;;;;;;5.77;3.10;;;21.60;99.90;;;;;;6042665;23;20487;-68
2022/08/04 03:31:09;;;;;;;4.10;2.90;;;21.50;99.90;;;;;;6049888;23;20759;-68
2022/08/04 03:34:00;;;;;;;3.13;2.90;;;21.50;99.90;;;;;;6039697;23;20717;-67
2022/08/04 03:36:59;;;;;;;4.77;3.17;;;21.40;99.90;;;;;;6020075;23;20442;-68
2022/08/04 03:39:59;;;;;;;3.50;3.30;;;21.40;99.90;;;;;;6033803;23;20530;-68
2022/08/04 03:42:42;;;;;;;5.73;3.97;;;21.40;99.90;;;;;;6031073;23;20541;-67
2022/08/04 03:45:44;;;;;;;4.30;3.87;;;21.30;99.90;;;;;;6032645;23;20926;-68
2022/08/04 03:48:37;;;;;;;4.17;3.23;;;21.30;99.90;;;;;;6022336;23;20495;-67
2022/08/04 03:54:57;;;;;;;3.73;3.43;;;21.30;99.90;;;;;;6033937;23;20462;-67
2022/08/04 03:57:47;;;;;;;4.23;3.93;;;21.30;99.90;;;;;;6035365;23;20469;-67
2022/08/04 04:00:17;;;;;;;3.60;3.30;;;21.30;99.90;;;;;;6039197;23;20468;-67
2022/08/04 04:03:23;;;;;;;3.73;3.43;;;21.30;99.90;;;;;;6031290;23;20483;-67
2022/08/04 04:06:24;;;;;;;3.53;3.20;;;21.30;99.90;;;;;;5970606;23;20845;-67
2022/08/04 04:09:12;;;;;;;4.60;3.90;;;21.40;99.90;;;;;;6037789;23;20983;-68
2022/08/04 04:11:58;;;;;;;3.80;3.50;;;21.40;99.90;;;;;;6017454;23;20593;-67
2022/08/04 04:14:48;;;;;;;4.70;3.60;;;21.40;99.90;;;;;;6032811;23;20439;-66
2022/08/04 04:17:40;;;;;;;4.77;3.80;;;21.40;99.90;;;;;;6031151;23;21044;-66
2022/08/04 04:20:25;;;;;;;5.03;3.23;;;21.40;99.90;;;;;;6031364;23;20451;-67
2022/08/04 04:23:07;;;;;;;6.20;4.03;;;21.40;99.90;;;;;;6032611;23;20969;-66
2022/08/04 04:25:43;;;;;;;4.80;4.23;;;21.30;99.90;;;;;;6026819;23;20537;-66
2022/08/04 04:28:49;;;;;;;4.30;3.90;;;21.30;99.90;;;;;;6026598;23;20446;-66
2022/08/04 04:31:57;;;;;;;5.77;4.03;;;21.20;99.90;;;;;;6023338;23;20440;-68
2022/08/04 04:34:40;;;;;;;6.90;4.40;;;21.20;99.90;;;;;;6026859;23;20984;-69
2022/08/04 04:37:20;;;;;;;5.17;4.67;;;21.20;99.90;;;;;;6026594;23;20433;-66
2022/08/04 04:39:59;;;;;;;5.70;4.23;;;21.10;99.90;;;;;;6032759;23;20436;-67
2022/08/04 04:42:42;;;;;;;5.67;4.70;;;21.10;99.90;;;;;;6018387;23;20448;-67
2022/08/04 04:45:22;;;;;;;4.77;4.37;;;21.30;99.90;;;;;;6030473;23;20442;-66
2022/08/04 04:47:56;;;;;;;5.33;4.10;;;21.00;99.90;;;;;;6030985;23;20441;-66
2022/08/04 04:50:32;;;;;;;5.90;4.50;;;21.00;99.90;;;;;;6032664;23;20450;-66
2022/08/04 04:53:06;;;;;;;7.27;4.20;;;21.00;99.90;;;;;;6032197;23;20517;-66
2022/08/04 04:55:39;;;;;;;4.70;4.20;;;21.00;99.90;;;;;;6030284;23;20979;-66
2022/08/04 04:58:13;;;;;;;4.10;3.57;;;21.00;99.90;;;;;;6032104;23;20490;-66
2022/08/04 05:00:57;;;;;;;4.37;3.97;;;21.00;99.90;;;;;;6031388;23;20462;-66
2022/08/04 05:03:44;;;;;;;3.73;3.43;;;21.00;99.90;;;;;;6032020;23;20530;-66
2022/08/04 05:06:28;;;;;;;4.10;3.47;;;21.10;99.90;;;;;;6030808;23;20469;-66
2022/08/04 05:09:22;;;;;;;4.57;4.07;;;21.10;99.90;;;;;;6033228;23;20436;-66
2022/08/04 05:12:32;;;;;;;4.90;3.47;;;21.10;99.90;;;;;;6029297;23;20848;-66
2022/08/04 05:15:01;;;;;;;3.90;3.50;;;21.20;99.90;;;;;;6036736;23;20445;-67
2022/08/04 05:17:33;;;;;;;3.70;3.33;;;21.20;99.90;;;;;;6028904;23;20846;-67
2022/08/04 05:20:08;;;;;;;5.87;3.60;;;21.30;99.90;;;;;;6032373;23;20922;-67
2022/08/04 05:22:39;;;;;;;5.50;3.70;;;21.30;99.90;;;;;;6034833;23;20489;-67
2022/08/04 05:25:12;;;;;;;3.40;3.13;;;21.40;99.90;;;;;;6037638;23;20446;-67
2022/08/04 05:27:45;;;;;;;3.97;3.67;;;21.40;99.90;;;;;;6028247;23;20521;-68
2022/08/04 05:30:13;;;;;;;4.13;3.73;;;21.50;99.90;;;;;;6045605;23;20984;-67
2022/08/04 05:32:50;;;;;;;5.67;4.27;;;21.60;99.90;;;;;;6044208;23;20483;-67
2022/08/04 05:35:27;;;;;;;4.93;3.67;;;21.70;99.90;;;;;;6040126;23;20829;-67
2022/08/04 05:37:56;;;;;;;4.37;3.43;;;21.70;99.90;;;;;;6031255;23;20468;-69
2022/08/04 05:40:25;;;;;;;4.13;3.33;;;21.80;99.90;;;;;;6026053;23;20531;-70
2022/08/04 16:09:38;;;;;;;2.70;2.50;;;43.20;37.10;;;;;;6173959;22;20960;-72
2022/08/04 16:12:06;;;;;;;2.57;2.37;;;42.90;38.00;;;;;;6152520;23;20460;-72
2022/08/04 16:14:35;;;;;;;3.10;2.70;;;43.30;37.40;;;;;;6150679;23;20460;-73
2022/08/04 16:17:17;;;;;;;3.73;2.43;;;43.70;37.30;;;;;;6153242;23;20428;-73
2022/08/04 16:20:09;;;;;;;2.80;2.70;;;43.40;36.50;;;;;;6154466;23;20985;-73
2022/08/04 16:22:39;;;;;;;3.67;2.80;;;43.20;37.40;;;;;;6151243;23;20436;-73
2022/08/04 16:25:09;;;;;;;3.07;2.83;;;43.10;37.10;;;;;;6142139;23;20468;-73
2022/08/04 16:27:39;;;;;;;3.53;2.60;;;42.50;37.30;;;;;;6150034;23;20463;-72
2022/08/04 16:30:08;;;;;;;2.70;2.50;;;41.40;37.60;;;;;;6147112;23;20448;-72
2022/08/04 16:32:45;;;;;;;2.73;2.40;;;40.70;38.60;;;;;;6148509;23;20535;-73
2022/08/04 16:35:26;;;;;;;2.67;2.47;;;40.30;39.90;;;;;;6149060;23;20529;-72
2022/08/04 16:38:10;;;;;;;2.37;2.20;;;39.90;40.10;;;;;;6148994;23;20516;-72
2022/08/04 16:40:43;;;;;;;2.83;2.63;;;39.60;40.00;;;;;;6140812;23;20456;-72
2022/08/04 16:43:13;;;;;;;3.03;2.60;;;39.10;39.90;;;;;;6139397;23;20444;-72
2022/08/04 16:45:48;;;;;;;2.57;2.37;;;38.70;40.60;;;;;;6138778;23;20526;-72
2022/08/04 16:48:16;;;;;;;2.80;2.60;;;38.30;41.30;;;;;;6135223;23;20566;-72
2022/08/04 16:50:56;;;;;;;3.53;2.93;;;37.90;41.80;;;;;;6130270;23;20605;-72
2022/08/04 16:53:25;;;;;;;2.77;2.57;;;37.70;41.90;;;;;;6145266;23;20493;-72
2022/08/04 16:55:56;;;;;;;2.63;2.43;;;37.50;42.10;;;;;;6135004;23;20472;-72
2022/08/04 16:58:31;;;;;;;3.87;2.60;;;37.20;42.20;;;;;;6136291;23;20859;-72
2022/08/04 17:01:08;;;;;;;2.60;2.50;;;37.10;42.50;;;;;;6135247;23;20459;-72
2022/08/04 17:03:37;;;;;;;2.90;2.53;;;36.90;42.50;;;;;;6138986;23;20488;-72
2022/08/04 17:06:10;;;;;;;2.57;2.40;;;36.80;43.00;;;;;;6133241;23;20463;-72
2022/08/04 17:08:38;;;;;;;2.50;2.40;;;36.80;43.20;;;;;;6065765;23;20495;-72
2022/08/04 17:11:08;;;;;;;3.40;2.80;;;36.60;43.10;;;;;;6028694;23;20483;-71
2022/08/04 17:13:37;;;;;;;2.77;2.57;;;36.50;44.00;;;;;;6029363;23;20436;-72
2022/08/04 17:16:06;;;;;;;3.30;2.83;;;36.30;44.20;;;;;;6016126;23;20436;-71
2022/08/04 17:18:36;;;;;;;3.70;2.70;;;36.20;44.40;;;;;;6022942;23;20464;-71
2022/08/04 17:21:07;;;;;;;3.23;2.60;;;36.20;44.40;;;;;;6010877;23;20456;-71
2022/08/04 17:23:37;;;;;;;3.37;2.50;;;36.10;44.70;;;;;;6009835;23;20437;-71
2022/08/04 17:26:09;;;;;;;2.70;2.50;;;36.00;44.80;;;;;;6014957;23;20780;-72
2022/08/04 17:28:37;;;;;;;3.03;2.40;;;35.90;44.50;;;;;;6019793;23;20502;-72
2022/08/04 17:31:06;;;;;;;3.43;2.50;;;35.90;44.80;;;;;;6007204;23;20881;-72
2022/08/04 17:33:34;;;;;;;3.23;2.33;;;35.80;44.50;;;;;;6016349;23;20445;-72
2022/08/04 17:36:02;;;;;;;2.80;2.33;;;35.80;44.40;;;;;;6019336;23;20438;-73
2022/08/04 17:38:31;;;;;;;3.20;2.40;;;35.70;44.50;;;;;;6021519;23;20483;-72
2022/08/04 17:41:01;;;;;;;3.30;2.60;;;35.70;44.80;;;;;;6019851;23;20480;-72
2022/08/04 17:43:43;;;;;;;2.53;2.43;;;35.70;44.80;;;;;;6015465;23;20455;-72
2022/08/04 17:46:21;;;;;;;2.80;2.60;;;35.70;44.90;;;;;;6014766;23;20443;-72
2022/08/04 17:49:00;;;;;;;2.77;2.57;;;35.60;44.90;;;;;;6020429;23;20467;-72
2022/08/04 17:51:37;;;;;;;2.83;2.53;;;35.60;44.90;;;;;;6017875;23;20463;-72
2022/08/04 17:54:05;;;;;;;4.10;2.63;;;35.50;44.80;;;;;;6009766;23;21029;-72
2022/08/04 17:56:35;;;;;;;2.50;2.30;;;35.50;45.20;;;;;;6022045;23;20440;-72
2022/08/04 17:59:16;;;;;;;2.63;2.43;;;35.50;45.10;;;;;;6016387;23;20428;-72
2022/08/04 18:01:47;;;;;;;3.00;2.43;;;35.40;45.50;;;;;;6020450;23;21056;-72
2022/08/04 18:04:49;;;;;;;3.03;2.83;;;35.40;44.70;;;;;;6019787;23;20472;-72
2022/08/04 18:07:18;;;;;;;2.70;2.50;;;35.40;44.70;;;;;;5988169;23;20440;-72
2022/08/04 18:09:52;;;;;;;3.10;2.80;;;35.30;45.00;;;;;;6021274;23;20496;-72
2022/08/04 18:12:23;;;;;;;2.83;2.63;;;35.30;45.50;;;;;;6017738;23;20448;-72
2022/08/04 18:14:54;;;;;;;3.30;2.97;;;35.20;45.80;;;;;;6015981;23;20834;-72
2022/08/04 18:17:32;;;;;;;2.73;2.53;;;35.20;46.50;;;;;;6022911;23;20467;-72
2022/08/04 18:20:00;;;;;;;3.60;3.20;;;35.10;46.70;;;;;;6025172;23;20456;-72
2022/08/04 18:22:28;;;;;;;2.90;2.70;;;35.00;46.70;;;;;;6026672;23;20484;-72
2022/08/04 18:24:55;;;;;;;3.50;3.20;;;35.00;47.50;;;;;;6010475;23;20432;-72
2022/08/04 18:27:23;;;;;;;3.20;3.00;;;34.90;47.30;;;;;;6014875;23;20487;-71
2022/08/04 18:29:53;;;;;;;3.20;3.00;;;34.80;47.60;;;;;;6030991;23;20911;-72
2022/08/04 18:32:22;;;;;;;3.00;2.80;;;34.70;47.60;;;;;;6012612;23;20440;-71
2022/08/04 18:34:49;;;;;;;2.80;2.60;;;34.70;47.80;;;;;;6024016;23;20432;-72
2022/08/04 18:37:17;;;;;;;3.40;3.10;;;34.60;48.00;;;;;;6021750;23;20499;-73
2022/08/04 18:39:44;;;;;;;3.20;3.00;;;34.50;48.10;;;;;;6027092;23;20780;-71
2022/08/04 18:42:12;;;;;;;3.23;2.93;;;34.40;48.50;;;;;;6021289;23;20432;-71
2022/08/04 18:44:39;;;;;;;4.50;3.27;;;34.30;48.70;;;;;;6016656;23;20452;-71
2022/08/04 18:47:08;;;;;;;2.90;2.70;;;34.30;48.70;;;;;;6024988;23;20440;-71
2022/08/04 18:49:35;;;;;;;3.90;2.80;;;34.20;48.80;;;;;;6023806;23;20472;-71
2022/08/04 18:52:02;;;;;;;3.93;3.30;;;34.00;49.00;;;;;;6013948;23;20428;-71
2022/08/04 18:54:30;;;;;;;3.20;3.00;;;33.90;49.60;;;;;;6014529;23;20543;-71
2022/08/04 18:56:57;;;;;;;3.13;2.93;;;33.90;49.40;;;;;;6022387;23;20476;-71
2022/08/04 18:59:25;;;;;;;3.77;3.30;;;33.80;49.30;;;;;;6015417;23;20476;-71
2022/08/04 19:01:52;;;;;;;4.30;3.90;;;33.70;49.30;;;;;;6012615;23;20432;-70
2022/08/04 19:04:21;;;;;;;3.80;3.50;;;33.60;49.50;;;;;;6007197;23;20433;-71
2022/08/04 19:06:48;;;;;;;3.13;2.93;;;33.50;49.60;;;;;;6017888;23;20554;-70
2022/08/04 19:09:15;;;;;;;3.27;3.07;;;33.40;50.10;;;;;;6010710;23;20484;-71
2022/08/04 19:11:42;;;;;;;3.00;2.73;;;33.40;50.10;;;;;;6013110;23;20522;-71
2022/08/04 19:14:09;;;;;;;3.27;3.07;;;33.30;50.20;;;;;;6014472;23;20472;-69
2022/08/04 19:16:38;;;;;;;3.50;3.20;;;33.20;50.40;;;;;;6008002;23;20524;-71
2022/08/04 19:19:06;;;;;;;3.47;3.20;;;33.10;50.50;;;;;;6036866;23;20772;-71
2022/08/04 19:21:36;;;;;;;3.50;3.03;;;33.00;50.70;;;;;;6028250;23;20498;-71
2022/08/04 19:24:04;;;;;;;3.17;2.97;;;33.00;50.80;;;;;;6019739;23;20460;-71
2022/08/04 19:26:31;;;;;;;3.37;3.10;;;32.90;50.90;;;;;;6012360;23;20444;-70
2022/08/04 19:28:59;;;;;;;3.17;2.97;;;32.80;51.00;;;;;;6015404;23;20889;-71
2022/08/04 19:31:26;;;;;;;3.60;3.33;;;32.70;51.00;;;;;;6014339;23;20457;-70
2022/08/04 19:33:53;;;;;;;4.30;3.37;;;32.70;51.00;;;;;;6005362;23;20440;-71
2022/08/04 19:36:20;;;;;;;3.20;3.00;;;32.70;50.90;;;;;;6017822;23;20476;-71
2022/08/04 19:38:48;;;;;;;3.57;3.27;;;32.60;50.90;;;;;;6024915;23;20437;-72
2022/08/04 19:41:15;;;;;;;3.30;3.00;;;32.60;50.90;;;;;;6018980;23;20824;-72
2022/08/04 19:43:45;;;;;;;3.17;2.87;;;32.50;52.10;;;;;;6038046;23;20441;-71
2022/08/04 19:46:12;;;;;;;3.90;2.80;;;32.20;53.20;;;;;;6012917;23;20438;-71
2022/08/04 19:48:39;;;;;;;3.73;3.40;;;32.00;53.40;;;;;;6022402;23;20440;-71
2022/08/04 19:51:07;;;;;;;3.50;3.20;;;31.80;53.70;;;;;;6024073;23;20819;-71
2022/08/04 19:53:34;;;;;;;4.53;3.40;;;31.60;54.10;;;;;;6016339;23;20498;-71
2022/08/04 19:56:02;;;;;;;3.43;3.13;;;31.40;54.40;;;;;;6018991;23;20433;-72
2022/08/04 19:58:30;;;;;;;3.90;3.50;;;31.30;54.30;;;;;;6020080;23;20440;-71
2022/08/04 20:00:57;;;;;;;3.37;2.97;;;31.20;54.20;;;;;;6014637;23;20810;-70
2022/08/04 20:03:24;;;;;;;4.23;3.47;;;31.20;54.10;;;;;;6008445;23;20437;-69
2022/08/04 20:05:52;;;;;;;3.10;2.90;;;31.30;54.10;;;;;;6009767;23;20471;-69
2022/08/04 20:08:19;;;;;;;3.40;3.10;;;31.30;54.10;;;;;;6017268;23;20445;-68
2022/08/04 20:10:46;;;;;;;3.17;2.93;;;31.30;54.10;;;;;;6011217;23;20989;-68
2022/08/04 20:13:15;;;;;;;3.10;2.80;;;31.30;53.50;;;;;;6017266;23;20444;-69
2022/08/04 20:15:42;;;;;;;3.33;3.10;;;31.40;54.40;;;;;;6013408;23;20471;-68
2022/08/04 20:18:09;;;;;;;3.70;3.40;;;31.40;55.10;;;;;;6007530;23;20916;-68
2022/08/04 20:20:37;;;;;;;3.20;3.00;;;31.40;54.10;;;;;;6017199;23;20461;-67
2022/08/04 20:23:04;;;;;;;3.10;2.90;;;31.30;53.70;;;;;;6017093;23;20444;-67
2022/08/04 20:25:31;;;;;;;3.40;3.03;;;31.30;54.00;;;;;;6011041;23;20448;-68
2022/08/04 20:27:58;;;;;;;3.30;3.00;;;31.30;53.70;;;;;;6005859;23;20857;-68
2022/08/04 20:30:27;;;;;;;3.97;3.17;;;31.30;53.00;;;;;;6011061;23;21029;-69
2022/08/04 20:32:55;;;;;;;3.30;3.00;;;31.30;53.30;;;;;;6018931;23;20517;-69
2022/08/04 20:35:24;;;;;;;4.20;3.80;;;31.40;53.40;;;;;;6018274;23;20528;-70
2022/08/04 20:37:52;;;;;;;4.23;3.60;;;31.40;53.20;;;;;;6016226;23;20469;-71
2022/08/04 20:40:19;;;;;;;3.00;2.80;;;31.40;52.30;;;;;;6014662;23;21155;-71
2022/08/04 20:42:46;;;;;;;3.30;3.10;;;31.50;52.20;;;;;;6012983;23;20939;-70
2022/08/04 20:45:14;;;;;;;3.40;3.10;;;31.50;52.10;;;;;;6010948;23;20432;-70
2022/08/04 20:47:44;;;;;;;3.20;3.00;;;31.60;52.00;;;;;;6021197;23;20456;-70
2022/08/04 20:50:11;;;;;;;3.50;3.20;;;31.60;52.10;;;;;;6017106;23;21001;-69
2022/08/04 20:52:40;;;;;;;3.90;3.57;;;31.60;54.30;;;;;;6020844;23;20523;-70
2022/08/04 20:55:09;;;;;;;3.37;3.07;;;31.40;54.80;;;;;;6023037;23;20437;-70
2022/08/04 20:57:36;;;;;;;3.90;3.60;;;31.20;55.00;;;;;;6025513;23;21074;-69
2022/08/04 21:00:04;;;;;;;3.73;3.50;;;30.90;55.30;;;;;;6014925;23;20489;-70
2022/08/04 21:02:31;;;;;;;4.33;3.90;;;30.70;55.90;;;;;;6024876;23;20493;-69
2022/08/04 21:05:00;;;;;;;4.50;3.40;;;30.50;56.40;;;;;;6020502;23;20444;-70
2022/08/04 21:07:27;;;;;;;4.77;3.80;;;30.40;57.10;;;;;;6021027;23;20856;-69
2022/08/04 21:09:54;;;;;;;5.23;4.20;;;30.30;57.50;;;;;;6022029;23;20476;-70
2022/08/04 21:12:21;;;;;;;4.70;4.10;;;30.10;57.80;;;;;;6025346;23;20437;-70
2022/08/04 21:14:48;;;;;;;5.30;4.30;;;30.10;58.10;;;;;;6024205;23;20471;-69
2022/08/04 21:17:15;;;;;;;4.60;4.17;;;30.00;58.40;;;;;;6018596;23;21367;-70
2022/08/04 21:19:43;;;;;;;4.53;4.13;;;29.90;58.70;;;;;;6015801;23;20521;-70
2022/08/04 21:22:13;;;;;;;5.20;4.70;;;29.80;59.00;;;;;;6025239;23;20497;-69
2022/08/04 21:24:40;;;;;;;6.13;4.80;;;29.70;59.40;;;;;;6024286;23;20507;-69
2022/08/04 21:27:07;;;;;;;7.67;4.70;;;29.60;59.80;;;;;;6018475;23;20472;-70
2022/08/04 21:29:34;;;;;;;4.93;4.53;;;29.50;60.30;;;;;;6022577;23;20475;-70
2022/08/04 21:32:02;;;;;;;5.27;4.50;;;29.40;60.80;;;;;;6024392;23;20482;-69
2022/08/04 21:34:29;;;;;;;4.97;4.50;;;29.30;61.50;;;;;;6022523;23;20992;-69
2022/08/04 21:36:57;;;;;;;6.30;4.70;;;29.20;61.80;;;;;;6023896;23;20800;-69
2022/08/04 21:39:26;;;;;;;4.27;3.97;;;29.10;62.50;;;;;;6018985;23;20446;-69
2022/08/04 21:41:53;;;;;;;4.50;4.20;;;29.00;62.90;;;;;;6020640;23;20563;-69
2022/08/04 21:44:20;;;;;;;5.50;5.00;;;28.90;63.10;;;;;;6020149;23;20967;-69
2022/08/04 21:46:49;;;;;;;4.83;4.40;;;28.80;63.30;;;;;;6026532;23;20432;-69
2022/08/04 21:49:17;;;;;;;4.97;4.67;;;28.80;63.70;;;;;;6024640;23;20529;-69
2022/08/04 21:51:44;;;;;;;5.97;5.47;;;28.80;64.30;;;;;;6022480;23;20485;-70
2022/08/04 21:54:12;;;;;;;5.80;5.40;;;28.80;64.70;;;;;;6020765;23;20489;-69
2022/08/04 21:56:41;;;;;;;5.63;4.90;;;28.80;65.00;;;;;;6018185;23;20476;-69
2022/08/04 21:59:08;;;;;;;6.30;5.73;;;28.80;65.20;;;;;;6024001;23;20919;-70
2022/08/04 22:01:35;;;;;;;6.23;5.60;;;28.80;65.30;;;;;;6022718;23;20460;-70
2022/08/04 22:04:02;;;;;;;5.97;5.57;;;28.70;65.60;;;;;;6024427;23;20452;-70
2022/08/04 22:06:29;;;;;;;6.63;6.03;;;28.70;65.80;;;;;;6022414;23;20436;-70
2022/08/04 22:08:57;;;;;;;6.27;5.77;;;28.70;66.00;;;;;;6023150;23;20444;-69
2022/08/04 22:11:27;;;;;;;6.80;6.10;;;28.70;66.50;;;;;;6019831;23;20826;-69
2022/08/04 22:13:57;;;;;;;7.43;5.90;;;28.60;67.00;;;;;;6025699;23;20449;-69
2022/08/04 22:16:24;;;;;;;6.80;5.97;;;28.50;67.30;;;;;;6019877;23;20468;-69
2022/08/04 22:18:52;;;;;;;6.07;5.53;;;28.40;67.70;;;;;;6025764;23;20464;-69
2022/08/04 22:21:19;;;;;;;5.13;4.60;;;28.30;68.30;;;;;;6020860;23;20468;-69
2022/08/04 22:23:46;;;;;;;5.40;5.00;;;28.20;68.50;;;;;;6024090;23;20472;-69
2022/08/04 22:26:18;;;;;;;6.07;5.50;;;28.00;68.80;;;;;;6016537;23;20436;-69
2022/08/04 22:28:46;;;;;;;5.40;4.90;;;27.90;69.60;;;;;;6024210;23;20453;-69
2022/08/04 22:31:16;;;;;;;5.13;4.70;;;27.80;69.90;;;;;;6018707;23;20985;-69
2022/08/04 22:33:44;;;;;;;4.97;4.27;;;27.70;70.30;;;;;;6023230;23;20485;-69
2022/08/04 22:36:12;;;;;;;4.63;4.30;;;27.70;70.70;;;;;;6019806;23;20992;-69
2022/08/04 22:38:40;;;;;;;5.70;5.30;;;27.60;71.10;;;;;;6023778;23;20468;-69
2022/08/04 22:41:09;;;;;;;4.70;4.30;;;27.50;71.50;;;;;;6018894;23;20456;-69
2022/08/04 22:43:37;;;;;;;4.80;4.50;;;27.40;71.80;;;;;;6013045;23;20433;-70
2022/08/04 22:46:07;;;;;;;5.13;4.63;;;27.40;72.00;;;;;;6020500;23;20590;-69
2022/08/04 22:48:37;;;;;;;4.97;4.60;;;27.30;72.20;;;;;;6022484;23;20481;-70
2022/08/04 22:51:06;;;;;;;4.80;4.33;;;27.20;72.60;;;;;;6024939;23;20472;-69
2022/08/04 22:53:35;;;;;;;4.60;4.20;;;27.20;73.10;;;;;;6024118;23;20950;-69
2022/08/04 22:56:02;;;;;;;5.13;4.77;;;27.20;73.00;;;;;;6024936;23;20443;-70
2022/08/04 22:58:29;;;;;;;5.23;4.83;;;27.20;73.60;;;;;;6026991;23;20919;-69
2022/08/04 23:00:56;;;;;;;5.40;4.47;;;27.30;74.20;;;;;;6023092;23;20517;-69
2022/08/04 23:03:23;;;;;;;4.57;4.27;;;27.20;74.00;;;;;;6015344;23;20995;-69
2022/08/04 23:05:52;;;;;;;4.70;4.30;;;27.20;74.30;;;;;;6018596;23;20472;-68
2022/08/04 23:08:19;;;;;;;4.80;4.40;;;27.20;74.30;;;;;;6018176;23;20464;-69
2022/08/04 23:10:46;;;;;;;4.50;4.20;;;27.20;74.40;;;;;;6025136;23;20530;-69
2022/08/04 23:13:14;;;;;;;4.40;4.10;;;27.30;73.90;;;;;;6024437;23;20468;-68
2022/08/04 23:15:41;;;;;;;4.67;4.27;;;27.30;74.70;;;;;;6014932;23;20520;-68
2022/08/04 23:18:08;;;;;;;4.33;3.93;;;27.30;74.00;;;;;;6023777;23;20465;-68
2022/08/04 23:20:36;;;;;;;4.87;4.47;;;27.30;73.40;;;;;;6022654;23;20823;-68
2022/08/04 23:23:04;;;;;;;5.20;4.10;;;27.30;73.70;;;;;;6022407;23;20447;-68
2022/08/04 23:25:31;;;;;;;4.60;4.30;;;27.30;73.50;;;;;;6021097;23;20441;-68
2022/08/04 23:27:58;;;;;;;4.57;4.17;;;27.30;73.60;;;;;;6015333;23;20444;-69
2022/08/04 23:30:26;;;;;;;4.70;4.27;;;27.30;73.80;;;;;;6023758;23;20503;-68
2022/08/04 23:32:54;;;;;;;4.97;4.40;;;27.30;74.90;;;;;;6024304;23;20441;-68
2022/08/04 23:35:21;;;;;;;5.30;4.90;;;27.20;75.90;;;;;;6018059;23;21359;-68
2022/08/04 23:37:48;;;;;;;5.10;4.70;;;27.20;76.90;;;;;;6023060;23;20465;-68
2022/08/04 23:40:17;;;;;;;5.40;4.90;;;27.10;76.70;;;;;;6021851;23;20464;-68
2022/08/04 23:42:44;;;;;;;6.17;5.60;;;27.10;77.60;;;;;;6023811;23;20440;-68
2022/08/04 23:45:11;;;;;;;7.73;5.70;;;27.10;78.20;;;;;;6015691;23;20523;-69
2022/08/04 23:47:38;;;;;;;5.27;4.87;;;27.00;78.10;;;;;;6023988;23;20440;-69
2022/08/04 23:50:06;;;;;;;6.80;6.20;;;27.00;79.10;;;;;;6020456;23;20550;-69